sensor_id;sensor_type;location;lat;lon;timestamp;P1;durP1;ratioP1;P2;durP2;ratioP2
22417;SDS011;11376;50.932;4.442;2022-10-23T00:02:22;9.37;;;2.70;;
22417;SDS011;11376;50.932;4.442;2022-10-23T00:04:51;9.73;;;2.80;;
22417;SDS011;11376;50.932;4.442;2022-10-23T00:07:17;9.52;;;2.70;;
22417;SDS011;11376;50.932;4.442;2022-10-23T00:09:42;7.07;;;2.80;;
22417;SDS011;11376;50.932;4.442;2022-10-23T00:12:08;10.07;;;2.57;;
22417;SDS011;11376;50.932;4.442;2022-10-23T00:14:34;7.47;;;2.70;;
22417;SDS011;11376;50.932;4.442;2022-10-23T00:16:59;6.43;;;2.60;;
22417;SDS011;11376;50.932;4.442;2022-10-23T00:19:25;6.43;;;2.17;;
22417;SDS011;11376;50.932;4.442;2022-10-23T00:21:51;5.80;;;2.33;;
22417;SDS011;11376;50.932;4.442;2022-10-23T00:24:16;6.93;;;2.60;;
22417;SDS011;11376;50.932;4.442;2022-10-23T00:26:42;10.60;;;2.30;;
22417;SDS011;11376;50.932;4.442;2022-10-23T00:29:08;7.20;;;2.17;;
22417;SDS011;11376;50.932;4.442;2022-10-23T00:31:34;10.60;;;2.60;;
22417;SDS011;11376;50.932;4.442;2022-10-23T00:34:00;6.78;;;2.58;;
22417;SDS011;11376;50.932;4.442;2022-10-23T00:36:26;5.82;;;2.78;;
22417;SDS011;11376;50.932;4.442;2022-10-23T00:38:52;6.20;;;2.40;;
22417;SDS011;11376;50.932;4.442;2022-10-23T00:41:21;6.33;;;2.60;;
22417;SDS011;11376;50.932;4.442;2022-10-23T00:46:23;5.82;;;2.58;;
22417;SDS011;11376;50.932;4.442;2022-10-23T00:48:49;6.07;;;2.30;;
22417;SDS011;11376;50.932;4.442;2022-10-23T00:51:15;4.63;;;2.30;;
22417;SDS011;11376;50.932;4.442;2022-10-23T00:53:41;8.03;;;2.53;;
22417;SDS011;11376;50.932;4.442;2022-10-23T00:56:08;6.93;;;2.30;;
22417;SDS011;11376;50.932;4.442;2022-10-23T00:58:34;8.23;;;2.60;;
22417;SDS011;11376;50.932;4.442;2022-10-23T01:01:00;8.68;;;2.80;;
22417;SDS011;11376;50.932;4.442;2022-10-23T01:03:26;6.35;;;2.60;;
22417;SDS011;11376;50.932;4.442;2022-10-23T01:05:59;7.28;;;2.53;;
22417;SDS011;11376;50.932;4.442;2022-10-23T01:08:34;7.47;;;2.45;;
22417;SDS011;11376;50.932;4.442;2022-10-23T01:11:12;6.10;;;2.20;;
22417;SDS011;11376;50.932;4.442;2022-10-23T01:19:47;7.50;;;2.57;;
22417;SDS011;11376;50.932;4.442;2022-10-23T01:22:41;5.07;;;2.10;;
22417;SDS011;11376;50.932;4.442;2022-10-23T01:28:12;6.33;;;2.40;;
22417;SDS011;11376;50.932;4.442;2022-10-23T01:30:45;6.65;;;2.58;;
22417;SDS011;11376;50.932;4.442;2022-10-23T01:33:13;10.00;;;2.10;;
22417;SDS011;11376;50.932;4.442;2022-10-23T01:41:24;9.03;;;2.50;;
22417;SDS011;11376;50.932;4.442;2022-10-23T01:43:51;8.45;;;2.63;;
22417;SDS011;11376;50.932;4.442;2022-10-23T01:46:20;9.02;;;2.50;;
22417;SDS011;11376;50.932;4.442;2022-10-23T01:48:49;4.85;;;1.80;;
22417;SDS011;11376;50.932;4.442;2022-10-23T01:51:17;6.97;;;2.20;;
22417;SDS011;11376;50.932;4.442;2022-10-23T01:53:46;5.88;;;2.17;;
22417;SDS011;11376;50.932;4.442;2022-10-23T01:56:15;6.05;;;2.17;;
22417;SDS011;11376;50.932;4.442;2022-10-23T01:58:47;6.13;;;2.45;;
22417;SDS011;11376;50.932;4.442;2022-10-23T02:01:17;5.70;;;2.35;;
22417;SDS011;11376;50.932;4.442;2022-10-23T02:03:45;8.50;;;2.25;;
22417;SDS011;11376;50.932;4.442;2022-10-23T02:06:13;8.25;;;2.30;;
22417;SDS011;11376;50.932;4.442;2022-10-23T02:08:38;4.75;;;2.10;;
22417;SDS011;11376;50.932;4.442;2022-10-23T02:11:12;8.10;;;2.42;;
22417;SDS011;11376;50.932;4.442;2022-10-23T02:16:31;10.53;;;2.10;;
22417;SDS011;11376;50.932;4.442;2022-10-23T02:19:20;4.97;;;1.87;;
22417;SDS011;11376;50.932;4.442;2022-10-23T02:21:49;6.75;;;2.40;;
22417;SDS011;11376;50.932;4.442;2022-10-23T02:24:32;7.75;;;2.10;;
22417;SDS011;11376;50.932;4.442;2022-10-23T02:27:02;6.07;;;2.40;;
22417;SDS011;11376;50.932;4.442;2022-10-23T02:29:37;10.10;;;2.33;;
22417;SDS011;11376;50.932;4.442;2022-10-23T02:32:07;8.07;;;2.22;;
22417;SDS011;11376;50.932;4.442;2022-10-23T02:34:34;9.10;;;2.20;;
22417;SDS011;11376;50.932;4.442;2022-10-23T02:37:00;4.95;;;2.00;;
22417;SDS011;11376;50.932;4.442;2022-10-23T02:39:26;5.00;;;1.73;;
22417;SDS011;11376;50.932;4.442;2022-10-23T02:52:45;4.72;;;2.10;;
22417;SDS011;11376;50.932;4.442;2022-10-23T02:55:22;7.07;;;2.38;;
22417;SDS011;11376;50.932;4.442;2022-10-23T03:00:53;8.80;;;2.40;;
22417;SDS011;11376;50.932;4.442;2022-10-23T03:03:25;5.63;;;2.08;;
22417;SDS011;11376;50.932;4.442;2022-10-23T03:05:55;5.03;;;2.20;;
22417;SDS011;11376;50.932;4.442;2022-10-23T03:08:21;4.30;;;1.95;;
22417;SDS011;11376;50.932;4.442;2022-10-23T03:10:47;9.80;;;2.25;;
22417;SDS011;11376;50.932;4.442;2022-10-23T03:13:12;7.00;;;2.38;;
22417;SDS011;11376;50.932;4.442;2022-10-23T03:15:38;6.40;;;2.33;;
22417;SDS011;11376;50.932;4.442;2022-10-23T03:18:03;7.05;;;2.20;;
22417;SDS011;11376;50.932;4.442;2022-10-23T03:20:29;9.52;;;2.15;;
22417;SDS011;11376;50.932;4.442;2022-10-23T03:22:55;6.38;;;2.10;;
22417;SDS011;11376;50.932;4.442;2022-10-23T03:25:20;6.63;;;2.13;;
22417;SDS011;11376;50.932;4.442;2022-10-23T03:27:46;5.13;;;1.92;;
22417;SDS011;11376;50.932;4.442;2022-10-23T03:30:11;4.50;;;1.73;;
22417;SDS011;11376;50.932;4.442;2022-10-23T03:32:37;7.95;;;2.10;;
22417;SDS011;11376;50.932;4.442;2022-10-23T03:35:03;5.43;;;1.77;;
22417;SDS011;11376;50.932;4.442;2022-10-23T03:37:29;5.30;;;2.15;;
22417;SDS011;11376;50.932;4.442;2022-10-23T03:39:54;4.88;;;1.67;;
22417;SDS011;11376;50.932;4.442;2022-10-23T03:42:20;5.82;;;2.20;;
22417;SDS011;11376;50.932;4.442;2022-10-23T03:44:45;6.30;;;2.00;;
22417;SDS011;11376;50.932;4.442;2022-10-23T03:47:11;3.97;;;1.77;;
22417;SDS011;11376;50.932;4.442;2022-10-23T03:49:37;7.28;;;1.73;;
22417;SDS011;11376;50.932;4.442;2022-10-23T03:52:03;5.53;;;1.90;;
22417;SDS011;11376;50.932;4.442;2022-10-23T03:54:29;5.55;;;1.90;;
22417;SDS011;11376;50.932;4.442;2022-10-23T03:56:55;4.72;;;1.70;;
22417;SDS011;11376;50.932;4.442;2022-10-23T03:59:21;7.80;;;2.08;;
22417;SDS011;11376;50.932;4.442;2022-10-23T04:01:47;9.00;;;2.08;;
22417;SDS011;11376;50.932;4.442;2022-10-23T04:04:12;8.18;;;2.05;;
22417;SDS011;11376;50.932;4.442;2022-10-23T04:06:38;3.92;;;1.80;;
22417;SDS011;11376;50.932;4.442;2022-10-23T04:09:04;7.32;;;2.05;;
22417;SDS011;11376;50.932;4.442;2022-10-23T04:11:30;6.60;;;1.85;;
22417;SDS011;11376;50.932;4.442;2022-10-23T04:13:56;4.18;;;1.75;;
22417;SDS011;11376;50.932;4.442;2022-10-23T04:16:21;7.40;;;1.90;;
22417;SDS011;11376;50.932;4.442;2022-10-23T04:18:48;6.95;;;1.95;;
22417;SDS011;11376;50.932;4.442;2022-10-23T04:21:13;9.27;;;2.10;;
22417;SDS011;11376;50.932;4.442;2022-10-23T04:23:39;5.95;;;1.70;;
22417;SDS011;11376;50.932;4.442;2022-10-23T04:26:05;7.10;;;1.80;;
22417;SDS011;11376;50.932;4.442;2022-10-23T04:28:30;5.78;;;1.67;;
22417;SDS011;11376;50.932;4.442;2022-10-23T04:30:56;3.45;;;1.48;;
22417;SDS011;11376;50.932;4.442;2022-10-23T04:33:21;4.00;;;1.45;;
22417;SDS011;11376;50.932;4.442;2022-10-23T04:35:47;7.05;;;2.20;;
22417;SDS011;11376;50.932;4.442;2022-10-23T04:38:13;4.40;;;1.80;;
22417;SDS011;11376;50.932;4.442;2022-10-23T04:40:38;4.90;;;1.42;;
22417;SDS011;11376;50.932;4.442;2022-10-23T04:43:04;4.70;;;1.40;;
22417;SDS011;11376;50.932;4.442;2022-10-23T04:45:30;4.63;;;1.80;;
22417;SDS011;11376;50.932;4.442;2022-10-23T04:47:55;3.43;;;1.80;;
22417;SDS011;11376;50.932;4.442;2022-10-23T04:50:21;3.42;;;1.73;;
22417;SDS011;11376;50.932;4.442;2022-10-23T04:52:48;3.90;;;1.90;;
22417;SDS011;11376;50.932;4.442;2022-10-23T04:55:17;3.80;;;1.67;;
22417;SDS011;11376;50.932;4.442;2022-10-23T04:57:43;6.13;;;1.88;;
22417;SDS011;11376;50.932;4.442;2022-10-23T05:00:09;3.90;;;1.70;;
22417;SDS011;11376;50.932;4.442;2022-10-23T05:02:37;4.93;;;1.40;;
22417;SDS011;11376;50.932;4.442;2022-10-23T05:05:02;2.95;;;1.40;;
22417;SDS011;11376;50.932;4.442;2022-10-23T05:07:28;5.47;;;1.50;;
22417;SDS011;11376;50.932;4.442;2022-10-23T05:09:54;6.00;;;1.67;;
22417;SDS011;11376;50.932;4.442;2022-10-23T05:12:19;2.90;;;1.20;;
22417;SDS011;11376;50.932;4.442;2022-10-23T05:14:45;4.35;;;1.42;;
22417;SDS011;11376;50.932;4.442;2022-10-23T05:17:15;8.55;;;1.67;;
22417;SDS011;11376;50.932;4.442;2022-10-23T05:19:47;4.47;;;1.25;;
22417;SDS011;11376;50.932;4.442;2022-10-23T05:22:17;2.92;;;1.25;;
22417;SDS011;11376;50.932;4.442;2022-10-23T05:24:44;4.20;;;1.33;;
22417;SDS011;11376;50.932;4.442;2022-10-23T05:27:10;4.05;;;1.20;;
22417;SDS011;11376;50.932;4.442;2022-10-23T05:29:36;4.53;;;1.40;;
22417;SDS011;11376;50.932;4.442;2022-10-23T05:32:02;4.03;;;1.35;;
22417;SDS011;11376;50.932;4.442;2022-10-23T05:34:30;4.85;;;1.38;;
22417;SDS011;11376;50.932;4.442;2022-10-23T05:36:59;2.75;;;1.20;;
22417;SDS011;11376;50.932;4.442;2022-10-23T05:39:25;3.97;;;1.40;;
22417;SDS011;11376;50.932;4.442;2022-10-23T05:41:51;4.13;;;1.23;;
22417;SDS011;11376;50.932;4.442;2022-10-23T05:44:30;3.17;;;1.20;;
22417;SDS011;11376;50.932;4.442;2022-10-23T05:46:55;4.35;;;1.17;;
22417;SDS011;11376;50.932;4.442;2022-10-23T05:49:24;4.40;;;1.15;;
22417;SDS011;11376;50.932;4.442;2022-10-23T05:51:50;2.97;;;1.38;;
22417;SDS011;11376;50.932;4.442;2022-10-23T05:54:16;4.55;;;1.60;;
22417;SDS011;11376;50.932;4.442;2022-10-23T05:56:41;3.75;;;1.42;;
22417;SDS011;11376;50.932;4.442;2022-10-23T05:59:07;3.92;;;1.42;;
22417;SDS011;11376;50.932;4.442;2022-10-23T06:01:34;3.63;;;1.33;;
22417;SDS011;11376;50.932;4.442;2022-10-23T06:04:00;2.92;;;1.13;;
22417;SDS011;11376;50.932;4.442;2022-10-23T06:06:26;2.33;;;1.30;;
22417;SDS011;11376;50.932;4.442;2022-10-23T06:08:52;4.10;;;1.27;;
22417;SDS011;11376;50.932;4.442;2022-10-23T06:11:18;6.78;;;1.80;;
22417;SDS011;11376;50.932;4.442;2022-10-23T06:13:44;3.47;;;1.30;;
22417;SDS011;11376;50.932;4.442;2022-10-23T06:16:11;3.85;;;1.60;;
22417;SDS011;11376;50.932;4.442;2022-10-23T06:18:41;3.90;;;1.70;;
22417;SDS011;11376;50.932;4.442;2022-10-23T06:21:08;4.55;;;1.80;;
22417;SDS011;11376;50.932;4.442;2022-10-23T06:23:34;4.90;;;1.67;;
22417;SDS011;11376;50.932;4.442;2022-10-23T06:26:01;4.45;;;1.70;;
22417;SDS011;11376;50.932;4.442;2022-10-23T06:28:27;4.53;;;1.55;;
22417;SDS011;11376;50.932;4.442;2022-10-23T06:30:52;5.13;;;1.45;;
22417;SDS011;11376;50.932;4.442;2022-10-23T06:33:18;3.70;;;1.38;;
22417;SDS011;11376;50.932;4.442;2022-10-23T06:35:44;4.75;;;1.50;;
22417;SDS011;11376;50.932;4.442;2022-10-23T06:38:10;4.20;;;1.33;;
22417;SDS011;11376;50.932;4.442;2022-10-23T06:40:36;7.70;;;1.70;;
22417;SDS011;11376;50.932;4.442;2022-10-23T06:43:02;3.97;;;1.58;;
22417;SDS011;11376;50.932;4.442;2022-10-23T06:45:28;4.28;;;1.20;;
22417;SDS011;11376;50.932;4.442;2022-10-23T06:47:56;4.70;;;1.27;;
22417;SDS011;11376;50.932;4.442;2022-10-23T06:50:22;5.50;;;1.73;;
22417;SDS011;11376;50.932;4.442;2022-10-23T06:52:49;3.75;;;1.20;;
22417;SDS011;11376;50.932;4.442;2022-10-23T06:55:14;7.45;;;1.30;;
22417;SDS011;11376;50.932;4.442;2022-10-23T06:57:41;4.53;;;1.48;;
22417;SDS011;11376;50.932;4.442;2022-10-23T07:00:07;4.57;;;1.40;;
22417;SDS011;11376;50.932;4.442;2022-10-23T07:02:33;4.82;;;1.55;;
22417;SDS011;11376;50.932;4.442;2022-10-23T07:04:58;4.72;;;1.50;;
22417;SDS011;11376;50.932;4.442;2022-10-23T07:07:24;3.33;;;1.40;;
22417;SDS011;11376;50.932;4.442;2022-10-23T07:09:50;3.15;;;1.27;;
22417;SDS011;11376;50.932;4.442;2022-10-23T07:12:15;3.33;;;1.42;;
22417;SDS011;11376;50.932;4.442;2022-10-23T07:14:41;3.05;;;1.30;;
22417;SDS011;11376;50.932;4.442;2022-10-23T07:17:06;2.88;;;1.30;;
22417;SDS011;11376;50.932;4.442;2022-10-23T07:19:32;2.90;;;1.40;;
22417;SDS011;11376;50.932;4.442;2022-10-23T07:21:57;4.65;;;1.77;;
22417;SDS011;11376;50.932;4.442;2022-10-23T07:24:23;3.97;;;1.65;;
22417;SDS011;11376;50.932;4.442;2022-10-23T07:26:49;4.40;;;1.83;;
22417;SDS011;11376;50.932;4.442;2022-10-23T07:29:14;5.93;;;1.30;;
22417;SDS011;11376;50.932;4.442;2022-10-23T07:31:40;4.60;;;1.60;;
22417;SDS011;11376;50.932;4.442;2022-10-23T07:34:05;2.70;;;1.30;;
22417;SDS011;11376;50.932;4.442;2022-10-23T07:36:31;3.63;;;1.50;;
22417;SDS011;11376;50.932;4.442;2022-10-23T07:38:56;3.97;;;1.52;;
22417;SDS011;11376;50.932;4.442;2022-10-23T07:41:22;3.63;;;1.40;;
22417;SDS011;11376;50.932;4.442;2022-10-23T07:43:48;4.70;;;1.40;;
22417;SDS011;11376;50.932;4.442;2022-10-23T07:46:13;2.47;;;1.10;;
22417;SDS011;11376;50.932;4.442;2022-10-23T07:48:39;4.18;;;1.30;;
22417;SDS011;11376;50.932;4.442;2022-10-23T07:51:06;3.47;;;1.35;;
22417;SDS011;11376;50.932;4.442;2022-10-23T07:53:34;2.97;;;1.55;;
22417;SDS011;11376;50.932;4.442;2022-10-23T07:56:02;3.03;;;1.48;;
22417;SDS011;11376;50.932;4.442;2022-10-23T07:58:34;2.75;;;1.42;;
22417;SDS011;11376;50.932;4.442;2022-10-23T08:01:01;6.63;;;1.65;;
22417;SDS011;11376;50.932;4.442;2022-10-23T08:03:28;3.63;;;1.48;;
22417;SDS011;11376;50.932;4.442;2022-10-23T08:05:55;3.22;;;1.50;;
22417;SDS011;11376;50.932;4.442;2022-10-23T08:08:21;3.97;;;1.30;;
22417;SDS011;11376;50.932;4.442;2022-10-23T08:10:49;3.25;;;1.40;;
22417;SDS011;11376;50.932;4.442;2022-10-23T08:13:16;3.03;;;1.30;;
22417;SDS011;11376;50.932;4.442;2022-10-23T08:15:44;5.13;;;1.40;;
22417;SDS011;11376;50.932;4.442;2022-10-23T08:18:11;2.67;;;1.40;;
22417;SDS011;11376;50.932;4.442;2022-10-23T08:20:40;5.13;;;1.52;;
22417;SDS011;11376;50.932;4.442;2022-10-23T08:23:07;3.30;;;1.40;;
22417;SDS011;11376;50.932;4.442;2022-10-23T08:25:34;5.35;;;1.02;;
22417;SDS011;11376;50.932;4.442;2022-10-23T08:28:00;4.32;;;1.20;;
22417;SDS011;11376;50.932;4.442;2022-10-23T08:30:26;3.75;;;0.90;;
22417;SDS011;11376;50.932;4.442;2022-10-23T08:32:51;3.60;;;1.42;;
22417;SDS011;11376;50.932;4.442;2022-10-23T08:35:17;2.97;;;1.50;;
22417;SDS011;11376;50.932;4.442;2022-10-23T08:37:43;5.25;;;1.90;;
22417;SDS011;11376;50.932;4.442;2022-10-23T08:40:13;5.30;;;1.90;;
22417;SDS011;11376;50.932;4.442;2022-10-23T08:42:40;5.95;;;1.90;;
22417;SDS011;11376;50.932;4.442;2022-10-23T08:45:24;3.65;;;1.55;;
22417;SDS011;11376;50.932;4.442;2022-10-23T08:48:12;3.50;;;1.48;;
22417;SDS011;11376;50.932;4.442;2022-10-23T08:50:52;3.95;;;1.30;;
22417;SDS011;11376;50.932;4.442;2022-10-23T08:56:03;5.07;;;1.50;;
22417;SDS011;11376;50.932;4.442;2022-10-23T08:58:44;8.23;;;1.40;;
22417;SDS011;11376;50.932;4.442;2022-10-23T09:04:01;3.40;;;1.20;;
22417;SDS011;11376;50.932;4.442;2022-10-23T09:09:07;4.18;;;1.10;;
22417;SDS011;11376;50.932;4.442;2022-10-23T09:14:28;3.08;;;1.30;;
22417;SDS011;11376;50.932;4.442;2022-10-23T09:17:22;4.25;;;1.48;;
22417;SDS011;11376;50.932;4.442;2022-10-23T09:19:49;2.70;;;1.20;;
22417;SDS011;11376;50.932;4.442;2022-10-23T09:22:37;3.88;;;1.23;;
22417;SDS011;11376;50.932;4.442;2022-10-23T09:25:07;2.72;;;0.90;;
22417;SDS011;11376;50.932;4.442;2022-10-23T09:27:48;4.40;;;1.40;;
22417;SDS011;11376;50.932;4.442;2022-10-23T09:30:26;6.18;;;1.58;;
22417;SDS011;11376;50.932;4.442;2022-10-23T09:32:52;4.30;;;1.20;;
22417;SDS011;11376;50.932;4.442;2022-10-23T09:35:25;4.05;;;1.10;;
22417;SDS011;11376;50.932;4.442;2022-10-23T09:37:52;4.13;;;1.40;;
22417;SDS011;11376;50.932;4.442;2022-10-23T09:40:24;3.60;;;1.30;;
22417;SDS011;11376;50.932;4.442;2022-10-23T09:43:11;3.53;;;1.20;;
22417;SDS011;11376;50.932;4.442;2022-10-23T09:45:40;4.03;;;1.00;;
22417;SDS011;11376;50.932;4.442;2022-10-23T09:48:10;3.58;;;1.40;;
22417;SDS011;11376;50.932;4.442;2022-10-23T09:51:20;4.22;;;1.38;;
22417;SDS011;11376;50.932;4.442;2022-10-23T09:53:45;3.38;;;1.50;;
22417;SDS011;11376;50.932;4.442;2022-10-23T09:56:24;7.93;;;1.50;;
22417;SDS011;11376;50.932;4.442;2022-10-23T10:01:46;2.97;;;1.10;;
22417;SDS011;11376;50.932;4.442;2022-10-23T10:04:14;5.05;;;1.30;;
22417;SDS011;11376;50.932;4.442;2022-10-23T10:06:39;4.93;;;1.10;;
22417;SDS011;11376;50.932;4.442;2022-10-23T10:09:11;7.13;;;1.50;;
22417;SDS011;11376;50.932;4.442;2022-10-23T10:11:49;4.20;;;1.17;;
22417;SDS011;11376;50.932;4.442;2022-10-23T10:16:59;5.50;;;1.30;;
22417;SDS011;11376;50.932;4.442;2022-10-23T10:22:24;3.67;;;1.63;;
22417;SDS011;11376;50.932;4.442;2022-10-23T10:25:13;3.72;;;1.63;;
22417;SDS011;11376;50.932;4.442;2022-10-23T10:30:44;6.20;;;1.35;;
22417;SDS011;11376;50.932;4.442;2022-10-23T10:36:09;5.22;;;1.50;;
22417;SDS011;11376;50.932;4.442;2022-10-23T10:39:00;5.60;;;1.60;;
22417;SDS011;11376;50.932;4.442;2022-10-23T10:47:11;4.88;;;1.58;;
22417;SDS011;11376;50.932;4.442;2022-10-23T10:52:46;7.55;;;1.50;;
22417;SDS011;11376;50.932;4.442;2022-10-23T10:55:27;7.40;;;1.70;;
22417;SDS011;11376;50.932;4.442;2022-10-23T10:58:04;7.18;;;1.85;;
22417;SDS011;11376;50.932;4.442;2022-10-23T11:00:49;4.72;;;1.08;;
22417;SDS011;11376;50.932;4.442;2022-10-23T11:03:38;5.28;;;1.42;;
22417;SDS011;11376;50.932;4.442;2022-10-23T11:06:15;9.05;;;1.90;;
22417;SDS011;11376;50.932;4.442;2022-10-23T11:08:44;4.90;;;1.30;;
22417;SDS011;11376;50.932;4.442;2022-10-23T11:11:15;5.25;;;1.50;;
22417;SDS011;11376;50.932;4.442;2022-10-23T11:13:42;5.22;;;1.33;;
22417;SDS011;11376;50.932;4.442;2022-10-23T11:16:16;7.60;;;1.60;;
22417;SDS011;11376;50.932;4.442;2022-10-23T11:19:07;6.90;;;1.30;;
22417;SDS011;11376;50.932;4.442;2022-10-23T11:33:07;5.10;;;1.63;;
22417;SDS011;11376;50.932;4.442;2022-10-23T11:38:29;5.55;;;1.35;;
22417;SDS011;11376;50.932;4.442;2022-10-23T11:40:58;7.75;;;1.52;;
22417;SDS011;11376;50.932;4.442;2022-10-23T11:43:32;3.92;;;1.33;;
22417;SDS011;11376;50.932;4.442;2022-10-23T11:46:11;4.78;;;1.42;;
22417;SDS011;11376;50.932;4.442;2022-10-23T11:48:39;4.05;;;1.33;;
22417;SDS011;11376;50.932;4.442;2022-10-23T11:53:51;4.13;;;1.30;;
22417;SDS011;11376;50.932;4.442;2022-10-23T12:03:57;8.27;;;1.50;;
22417;SDS011;11376;50.932;4.442;2022-10-23T12:06:31;3.58;;;1.30;;
22417;SDS011;11376;50.932;4.442;2022-10-23T12:09:05;4.50;;;1.02;;
22417;SDS011;11376;50.932;4.442;2022-10-23T12:12:04;3.38;;;1.20;;
22417;SDS011;11376;50.932;4.442;2022-10-23T12:17:28;7.15;;;1.30;;
22417;SDS011;11376;50.932;4.442;2022-10-23T12:22:31;5.22;;;1.35;;
22417;SDS011;11376;50.932;4.442;2022-10-23T12:33:43;3.42;;;1.13;;
22417;SDS011;11376;50.932;4.442;2022-10-23T12:36:22;6.35;;;1.20;;
22417;SDS011;11376;50.932;4.442;2022-10-23T12:39:24;4.57;;;1.40;;
22417;SDS011;11376;50.932;4.442;2022-10-23T12:41:49;6.60;;;1.55;;
22417;SDS011;11376;50.932;4.442;2022-10-23T12:44:15;3.50;;;1.38;;
22417;SDS011;11376;50.932;4.442;2022-10-23T12:46:41;5.32;;;1.42;;
22417;SDS011;11376;50.932;4.442;2022-10-23T12:49:13;3.85;;;1.40;;
22417;SDS011;11376;50.932;4.442;2022-10-23T12:51:44;4.32;;;1.20;;
22417;SDS011;11376;50.932;4.442;2022-10-23T12:54:17;4.07;;;1.20;;
22417;SDS011;11376;50.932;4.442;2022-10-23T12:56:45;5.72;;;1.23;;
22417;SDS011;11376;50.932;4.442;2022-10-23T12:59:22;4.00;;;1.45;;
22417;SDS011;11376;50.932;4.442;2022-10-23T13:01:50;5.03;;;1.30;;
22417;SDS011;11376;50.932;4.442;2022-10-23T13:06:55;2.88;;;1.20;;
22417;SDS011;11376;50.932;4.442;2022-10-23T13:09:35;7.13;;;1.42;;
22417;SDS011;11376;50.932;4.442;2022-10-23T13:12:04;4.97;;;1.67;;
22417;SDS011;11376;50.932;4.442;2022-10-23T13:14:39;2.60;;;1.10;;
22417;SDS011;11376;50.932;4.442;2022-10-23T13:17:08;7.05;;;1.70;;
22417;SDS011;11376;50.932;4.442;2022-10-23T13:19:35;5.32;;;1.50;;
22417;SDS011;11376;50.932;4.442;2022-10-23T13:22:14;2.75;;;1.35;;
22417;SDS011;11376;50.932;4.442;2022-10-23T13:24:43;4.25;;;1.30;;
22417;SDS011;11376;50.932;4.442;2022-10-23T13:27:29;5.38;;;1.52;;
22417;SDS011;11376;50.932;4.442;2022-10-23T13:29:57;4.45;;;1.55;;
22417;SDS011;11376;50.932;4.442;2022-10-23T13:32:24;9.77;;;2.05;;
22417;SDS011;11376;50.932;4.442;2022-10-23T13:34:52;5.25;;;2.10;;
22417;SDS011;11376;50.932;4.442;2022-10-23T13:40:02;8.60;;;2.10;;
22417;SDS011;11376;50.932;4.442;2022-10-23T13:42:43;4.63;;;1.80;;
22417;SDS011;11376;50.932;4.442;2022-10-23T13:45:13;3.60;;;1.35;;
22417;SDS011;11376;50.932;4.442;2022-10-23T13:47:43;4.38;;;1.45;;
22417;SDS011;11376;50.932;4.442;2022-10-23T13:50:09;5.18;;;1.55;;
22417;SDS011;11376;50.932;4.442;2022-10-23T13:52:35;4.35;;;1.50;;
22417;SDS011;11376;50.932;4.442;2022-10-23T13:55:01;4.53;;;1.60;;
22417;SDS011;11376;50.932;4.442;2022-10-23T13:57:28;5.18;;;1.63;;
22417;SDS011;11376;50.932;4.442;2022-10-23T13:59:53;3.17;;;1.45;;
22417;SDS011;11376;50.932;4.442;2022-10-23T14:02:20;3.72;;;1.52;;
22417;SDS011;11376;50.932;4.442;2022-10-23T14:04:47;7.78;;;1.50;;
22417;SDS011;11376;50.932;4.442;2022-10-23T14:07:14;4.28;;;1.60;;
22417;SDS011;11376;50.932;4.442;2022-10-23T14:09:40;5.78;;;1.60;;
22417;SDS011;11376;50.932;4.442;2022-10-23T14:12:05;5.28;;;1.27;;
22417;SDS011;11376;50.932;4.442;2022-10-23T14:14:31;3.35;;;1.38;;
22417;SDS011;11376;50.932;4.442;2022-10-23T14:16:57;4.50;;;1.48;;
22417;SDS011;11376;50.932;4.442;2022-10-23T14:19:23;5.15;;;1.63;;
22417;SDS011;11376;50.932;4.442;2022-10-23T14:21:48;3.42;;;1.27;;
22417;SDS011;11376;50.932;4.442;2022-10-23T14:24:14;6.63;;;1.83;;
22417;SDS011;11376;50.932;4.442;2022-10-23T14:26:39;5.45;;;1.80;;
22417;SDS011;11376;50.932;4.442;2022-10-23T14:29:07;6.13;;;1.38;;
22417;SDS011;11376;50.932;4.442;2022-10-23T14:31:32;4.97;;;1.52;;
22417;SDS011;11376;50.932;4.442;2022-10-23T14:33:58;5.30;;;1.60;;
22417;SDS011;11376;50.932;4.442;2022-10-23T14:36:25;10.30;;;1.60;;
22417;SDS011;11376;50.932;4.442;2022-10-23T14:38:55;5.07;;;1.65;;
22417;SDS011;11376;50.932;4.442;2022-10-23T14:41:22;4.10;;;1.42;;
22417;SDS011;11376;50.932;4.442;2022-10-23T14:43:49;3.67;;;1.50;;
22417;SDS011;11376;50.932;4.442;2022-10-23T14:46:15;6.22;;;1.95;;
22417;SDS011;11376;50.932;4.442;2022-10-23T14:48:44;4.07;;;1.60;;
22417;SDS011;11376;50.932;4.442;2022-10-23T14:51:15;6.05;;;2.00;;
22417;SDS011;11376;50.932;4.442;2022-10-23T14:53:45;6.90;;;2.15;;
22417;SDS011;11376;50.932;4.442;2022-10-23T14:56:11;7.88;;;1.70;;
22417;SDS011;11376;50.932;4.442;2022-10-23T14:58:36;4.80;;;1.70;;
22417;SDS011;11376;50.932;4.442;2022-10-23T15:01:02;5.72;;;1.75;;
22417;SDS011;11376;50.932;4.442;2022-10-23T15:03:28;4.45;;;1.42;;
22417;SDS011;11376;50.932;4.442;2022-10-23T15:05:54;9.30;;;1.60;;
22417;SDS011;11376;50.932;4.442;2022-10-23T15:08:20;4.47;;;1.40;;
22417;SDS011;11376;50.932;4.442;2022-10-23T15:10:46;6.32;;;1.85;;
22417;SDS011;11376;50.932;4.442;2022-10-23T15:13:12;6.10;;;1.63;;
22417;SDS011;11376;50.932;4.442;2022-10-23T15:15:37;8.60;;;1.92;;
22417;SDS011;11376;50.932;4.442;2022-10-23T15:18:03;6.05;;;2.00;;
22417;SDS011;11376;50.932;4.442;2022-10-23T15:20:29;6.20;;;1.92;;
22417;SDS011;11376;50.932;4.442;2022-10-23T15:22:55;8.27;;;2.15;;
22417;SDS011;11376;50.932;4.442;2022-10-23T15:25:20;4.93;;;1.42;;
22417;SDS011;11376;50.932;4.442;2022-10-23T15:27:46;4.80;;;1.52;;
22417;SDS011;11376;50.932;4.442;2022-10-23T15:30:12;5.47;;;1.70;;
22417;SDS011;11376;50.932;4.442;2022-10-23T15:32:38;3.90;;;1.50;;
22417;SDS011;11376;50.932;4.442;2022-10-23T15:35:05;8.90;;;2.40;;
22417;SDS011;11376;50.932;4.442;2022-10-23T15:37:31;6.18;;;2.00;;
22417;SDS011;11376;50.932;4.442;2022-10-23T15:39:56;5.80;;;1.73;;
22417;SDS011;11376;50.932;4.442;2022-10-23T15:42:23;7.97;;;1.67;;
22417;SDS011;11376;50.932;4.442;2022-10-23T15:44:48;8.43;;;1.60;;
22417;SDS011;11376;50.932;4.442;2022-10-23T15:47:14;6.18;;;1.90;;
22417;SDS011;11376;50.932;4.442;2022-10-23T15:49:40;6.13;;;1.70;;
22417;SDS011;11376;50.932;4.442;2022-10-23T15:52:06;7.45;;;1.70;;
22417;SDS011;11376;50.932;4.442;2022-10-23T15:54:33;4.85;;;1.60;;
22417;SDS011;11376;50.932;4.442;2022-10-23T15:56:59;5.18;;;1.80;;
22417;SDS011;11376;50.932;4.442;2022-10-23T15:59:26;5.13;;;1.42;;
22417;SDS011;11376;50.932;4.442;2022-10-23T16:01:53;6.45;;;1.50;;
22417;SDS011;11376;50.932;4.442;2022-10-23T16:04:19;6.20;;;1.55;;
22417;SDS011;11376;50.932;4.442;2022-10-23T16:06:45;4.97;;;1.80;;
22417;SDS011;11376;50.932;4.442;2022-10-23T16:09:11;6.47;;;1.88;;
22417;SDS011;11376;50.932;4.442;2022-10-23T16:11:37;8.85;;;1.73;;
22417;SDS011;11376;50.932;4.442;2022-10-23T16:14:04;3.47;;;1.50;;
22417;SDS011;11376;50.932;4.442;2022-10-23T16:16:30;6.93;;;2.10;;
22417;SDS011;11376;50.932;4.442;2022-10-23T16:18:57;6.03;;;1.50;;
22417;SDS011;11376;50.932;4.442;2022-10-23T16:21:25;7.95;;;1.90;;
22417;SDS011;11376;50.932;4.442;2022-10-23T16:23:52;4.47;;;1.35;;
22417;SDS011;11376;50.932;4.442;2022-10-23T16:26:19;5.43;;;1.60;;
22417;SDS011;11376;50.932;4.442;2022-10-23T16:28:45;7.47;;;1.90;;
22417;SDS011;11376;50.932;4.442;2022-10-23T16:31:12;5.80;;;1.63;;
22417;SDS011;11376;50.932;4.442;2022-10-23T16:33:40;3.08;;;1.50;;
22417;SDS011;11376;50.932;4.442;2022-10-23T16:36:07;4.85;;;2.20;;
22417;SDS011;11376;50.932;4.442;2022-10-23T16:38:33;6.53;;;1.70;;
22417;SDS011;11376;50.932;4.442;2022-10-23T16:41:00;4.47;;;1.65;;
22417;SDS011;11376;50.932;4.442;2022-10-23T16:43:26;5.75;;;1.75;;
22417;SDS011;11376;50.932;4.442;2022-10-23T16:46:02;6.75;;;1.50;;
22417;SDS011;11376;50.932;4.442;2022-10-23T16:48:36;5.78;;;1.60;;
22417;SDS011;11376;50.932;4.442;2022-10-23T16:51:10;4.88;;;1.85;;